Accueil
METAR-TAF:

METAR-TAF

Aéroports :

Takamatsu, Japon

latitude: 34-13N, longitude: 134-01E, altitude: 185 m

Observation

Le bulletin a été fait il y a 19 minutes, à 12:00 UTC
Vent 7 kt de ouest
Température 7°C
Humidité 66%
Pression 1019 hPa
Visibilité 10 km ou plus
Quelques nuages à une hauteur de 2500 ft
Nuages fragmentés à une hauteur de 3500 ft
faibles averses de pluie

METAR: RJOT 201200Z 26007KT 9999 -SHRA FEW025 BKN035 07/01 Q1019

Heure: 21:19 (12:19 UTC)

Prévision

Le bulletin a été fait il y a 1 heure et 11 minutes, à 11:08 UTC
Prévision valable du 20 à 12 UTC au 21 à 18 UTC
Vent 9 kt de ouest/sud-ouest
Visibilité 10 km ou plus
Quelques nuages à une hauteur de 2500 ft
Nuages fragmentés à une hauteur de 5000 ft
Evoluant progressivement
du 21 à 09 UTC au 21 à 12 UTC
Vent 7 kt de sud/sud-est

TAF: RJOT 201108Z 2012/2118 25009KT 9999 FEW025 BKN050 BECMG 2109/2112 15007KT

Observations et prévisions météorologiques de plus de 4000 aéroports (messages METAR et TAF).

Les stations disponibles sont représentées par des disques jaunes et rouges sur la carte.

Passer la souris dessus pour voir le nom de la station.

Cliquer dessus pour voir les observations et prévisions météorologiques.

Pour changer de carte: cliquez sur les boutons verts avec une croix noire pour zoomer, sur le bouton vert avec un tiret pour effectuer un zoom arrière, ou sur les flèches vertes pour les cartes adjacentes.


METAR-TAF: